Time;durP1;ratioP1;P1;durP2;ratioP2;P2;SDS_P1;SDS_P2;PMS_P1;PMS_P2;Temp;Humidity;BMP_temperature;BMP_pressure;BME280_temperature;BME280_humidity;BME280_pressure;Samples;Min_cycle;Max_cycle;Signal;HPM_P1;HPM_P2
2023/11/07 00:00:03;;;;;;;;;;;10.40;99.90;;;;;;5054860;28;19912;-85
2023/11/07 00:02:28;;;;;;;;;;;10.40;99.90;;;;;;5051137;28;19917;-84
2023/11/07 00:04:55;;;;;;;;;;;10.40;99.90;;;;;;5054544;28;19924;-85
2023/11/07 00:07:23;;;;;;;;;;;10.40;99.90;;;;;;5054718;28;19955;-85
2023/11/07 00:09:49;;;;;;;;;;;10.50;99.90;;;;;;5054534;28;20354;-84
2023/11/07 00:12:16;;;;;;;;;;;10.30;99.90;;;;;;5052509;28;20366;-83
2023/11/07 00:14:41;;;;;;;;;;;10.10;99.90;;;;;;5044683;28;19939;-85
2023/11/07 00:17:07;;;;;;;;;;;10.20;99.90;;;;;;5054959;28;19913;-84
2023/11/07 00:19:33;;;;;;;;;;;10.00;99.90;;;;;;5054496;28;19908;-86
2023/11/07 00:21:59;;;;;;;;;;;9.80;99.90;;;;;;5053809;28;19968;-84
2023/11/07 00:24:25;;;;;;;;;;;9.70;99.90;;;;;;5070142;28;19963;-85
2023/11/07 00:26:52;;;;;;;;;;;9.70;99.90;;;;;;5053656;28;19920;-85
2023/11/07 00:29:17;;;;;;;;;;;9.70;99.90;;;;;;5053723;28;20304;-85
2023/11/07 00:31:43;;;;;;;;;;;9.70;99.90;;;;;;5054098;28;19909;-85
2023/11/07 00:34:09;;;;;;;;;;;9.70;99.90;;;;;;5044237;28;19924;-84
2023/11/07 00:36:35;;;;;;;;;;;9.80;99.90;;;;;;5053522;28;19909;-85
2023/11/07 00:39:00;;;;;;;;;;;9.80;99.90;;;;;;5053558;28;20054;-86
2023/11/07 00:41:26;;;;;;;;;;;9.80;99.90;;;;;;5053288;28;19967;-84
2023/11/07 00:43:52;;;;;;;;;;;9.70;99.90;;;;;;5053457;28;20021;-85
2023/11/07 00:46:18;;;;;;;;;;;9.70;99.90;;;;;;5061228;28;20005;-85
2023/11/07 00:48:44;;;;;;;;;;;9.70;99.90;;;;;;5060594;28;19916;-84
2023/11/07 00:51:11;;;;;;;;;;;9.70;99.90;;;;;;5077082;28;19901;-83
2023/11/07 00:53:37;;;;;;;;;;;9.70;99.90;;;;;;5057538;28;19916;-85
2023/11/07 00:56:03;;;;;;;;;;;9.70;99.90;;;;;;5053572;28;19952;-84
2023/11/07 00:58:29;;;;;;;;;;;9.70;99.90;;;;;;5053594;28;19952;-85
2023/11/07 01:00:55;;;;;;;;;;;9.70;99.90;;;;;;5046334;28;19909;-84
2023/11/07 01:03:21;;;;;;;;;;;9.70;99.90;;;;;;5052852;28;19969;-84
2023/11/07 01:05:47;;;;;;;;;;;9.70;99.90;;;;;;5053772;28;19915;-85
2023/11/07 01:08:14;;;;;;;;;;;9.70;99.90;;;;;;5052631;28;19912;-85
2023/11/07 01:10:39;;;;;;;;;;;9.70;99.90;;;;;;5059478;28;19925;-83
2023/11/07 01:13:07;;;;;;;;;;;9.80;99.90;;;;;;5054487;28;19928;-84
2023/11/07 01:15:33;;;;;;;;;;;9.80;99.90;;;;;;5051791;28;20290;-85
2023/11/07 01:17:58;;;;;;;;;;;9.90;99.90;;;;;;5053034;28;19919;-85
2023/11/07 01:20:24;;;;;;;;;;;9.90;99.90;;;;;;5051734;28;19909;-84
2023/11/07 01:22:50;;;;;;;;;;;10.00;99.90;;;;;;5052582;28;19932;-85
2023/11/07 01:25:16;;;;;;;;;;;10.00;99.90;;;;;;5052403;28;19977;-85
2023/11/07 01:27:42;;;;;;;;;;;10.00;99.90;;;;;;5052502;28;19909;-85
2023/11/07 01:30:08;;;;;;;;;;;10.00;99.90;;;;;;5052554;28;19908;-84
2023/11/07 01:32:34;;;;;;;;;;;9.90;99.90;;;;;;5051041;28;19909;-85
2023/11/07 01:34:59;;;;;;;;;;;9.90;99.90;;;;;;5051177;28;19909;-85
2023/11/07 01:37:25;;;;;;;;;;;9.80;99.90;;;;;;5052502;28;19995;-85
2023/11/07 01:39:51;;;;;;;;;;;9.80;99.90;;;;;;5056253;28;20362;-83
2023/11/07 01:42:16;;;;;;;;;;;9.80;99.90;;;;;;5052869;28;19915;-84
2023/11/07 01:44:52;;;;;;;;;;;9.80;99.90;;;;;;5052271;28;20027;-84
2023/11/07 01:47:18;;;;;;;;;;;9.80;99.90;;;;;;5053620;28;19916;-85
2023/11/07 01:49:47;;;;;;;;;;;9.80;99.90;;;;;;5051994;28;19916;-84
2023/11/07 01:52:13;;;;;;;;;;;9.80;99.90;;;;;;5053013;28;20439;-85
2023/11/07 01:54:39;;;;;;;;;;;9.90;99.90;;;;;;5056430;28;19963;-85
2023/11/07 01:57:05;;;;;;;;;;;9.80;99.90;;;;;;5064093;28;19897;-84
2023/11/07 01:59:31;;;;;;;;;;;9.80;99.90;;;;;;5069488;28;19917;-84
2023/11/07 02:02:00;;;;;;;;;;;9.80;99.90;;;;;;5053115;28;19913;-85
2023/11/07 02:04:25;;;;;;;;;;;9.70;99.90;;;;;;5063977;28;19962;-84
2023/11/07 02:06:51;;;;;;;;;;;9.70;99.90;;;;;;5063779;28;20003;-86
2023/11/07 02:09:17;;;;;;;;;;;9.70;99.90;;;;;;5053397;28;19924;-84
2023/11/07 02:11:43;;;;;;;;;;;9.80;99.90;;;;;;5056070;28;19983;-84
2023/11/07 02:14:24;;;;;;;;;;;9.80;99.90;;;;;;5056157;28;19924;-84
2023/11/07 02:16:50;;;;;;;;;;;9.90;99.90;;;;;;5051944;28;19919;-84
2023/11/07 02:19:16;;;;;;;;;;;9.90;99.90;;;;;;5056330;28;19913;-85
2023/11/07 02:21:42;;;;;;;;;;;9.90;99.90;;;;;;5055998;28;19924;-84
2023/11/07 02:24:10;;;;;;;;;;;10.00;99.90;;;;;;5054504;28;19909;-84
2023/11/07 02:26:36;;;;;;;;;;;10.10;99.90;;;;;;5052180;28;19917;-84
2023/11/07 02:29:01;;;;;;;;;;;10.10;99.90;;;;;;5051133;28;19917;-85
2023/11/07 02:31:27;;;;;;;;;;;10.10;99.90;;;;;;5056172;28;19948;-86
2023/11/07 02:33:53;;;;;;;;;;;10.20;99.90;;;;;;5056078;28;19917;-85
2023/11/07 02:36:18;;;;;;;;;;;10.20;99.90;;;;;;5056785;28;19913;-85
2023/11/07 02:38:44;;;;;;;;;;;10.20;99.90;;;;;;5067561;28;19976;-86
2023/11/07 02:41:10;;;;;;;;;;;10.20;99.90;;;;;;5065591;28;19916;-86
2023/11/07 02:43:35;;;;;;;;;;;10.20;99.90;;;;;;5052025;28;19909;-86
2023/11/07 02:46:01;;;;;;;;;;;10.30;99.90;;;;;;5057777;28;19912;-86
2023/11/07 02:48:27;;;;;;;;;;;10.30;99.90;;;;;;5056944;28;19988;-86
2023/11/07 02:50:52;;;;;;;;;;;10.30;99.90;;;;;;5060459;28;19920;-86
2023/11/07 02:53:18;;;;;;;;;;;10.30;99.90;;;;;;5057819;28;20026;-85
2023/11/07 02:55:45;;;;;;;;;;;10.30;99.90;;;;;;5056712;28;20349;-86
2023/11/07 02:58:11;;;;;;;;;;;10.40;99.90;;;;;;5057413;28;19921;-85
2023/11/07 03:00:36;;;;;;;;;;;10.40;99.90;;;;;;5047271;28;19967;-86
2023/11/07 03:03:03;;;;;;;;;;;10.40;99.90;;;;;;5056454;28;19913;-84
2023/11/07 03:05:29;;;;;;;;;;;10.40;99.90;;;;;;5052199;28;19913;-85
2023/11/07 03:08:02;;;;;;;;;;;10.40;99.90;;;;;;5053215;28;19966;-86
2023/11/07 03:10:27;;;;;;;;;;;10.40;99.90;;;;;;5057777;28;19921;-85
2023/11/07 03:12:53;;;;;;;;;;;10.40;99.90;;;;;;5055997;28;19924;-85
2023/11/07 03:15:18;;;;;;;;;;;10.50;99.90;;;;;;5058205;28;19909;-86
2023/11/07 03:17:44;;;;;;;;;;;10.40;99.90;;;;;;5056448;28;19916;-86
2023/11/07 03:20:10;;;;;;;;;;;10.40;99.90;;;;;;5056533;28;20305;-87
2023/11/07 03:22:36;;;;;;;;;;;10.40;99.90;;;;;;5057385;28;19920;-85
2023/11/07 03:25:01;;;;;;;;;;;10.50;99.90;;;;;;5056137;28;19909;-86
2023/11/07 03:27:27;;;;;;;;;;;10.40;99.90;;;;;;5061861;28;19966;-86
2023/11/07 03:29:52;;;;;;;;;;;10.30;99.90;;;;;;5064879;28;19943;-87
2023/11/07 03:32:18;;;;;;;;;;;10.50;99.90;;;;;;5068436;28;19909;-86
2023/11/07 03:34:45;;;;;;;;;;;10.40;99.90;;;;;;5058922;28;19923;-88
2023/11/07 03:37:11;;;;;;;;;;;10.40;99.90;;;;;;5051476;28;19913;-86
2023/11/07 03:39:36;;;;;;;;;;;10.40;99.90;;;;;;5055417;28;19909;-87
2023/11/07 03:42:02;;;;;;;;;;;10.40;99.90;;;;;;5055106;28;19913;-86
2023/11/07 03:44:28;;;;;;;;;;;10.40;99.90;;;;;;5055087;28;19909;-87
2023/11/07 03:46:54;;;;;;;;;;;10.50;99.90;;;;;;5052077;28;20389;-86
2023/11/07 03:49:19;;;;;;;;;;;10.40;99.90;;;;;;5049290;28;20327;-84
2023/11/07 03:51:45;;;;;;;;;;;10.40;99.90;;;;;;5054488;28;20370;-86
2023/11/07 03:54:11;;;;;;;;;;;10.50;99.90;;;;;;5056267;28;19917;-86
2023/11/07 03:56:37;;;;;;;;;;;10.40;99.90;;;;;;5056453;28;19919;-85
2023/11/07 03:59:03;;;;;;;;;;;10.40;99.90;;;;;;5048291;28;19909;-84
2023/11/07 04:01:35;;;;;;;;;;;10.40;99.90;;;;;;5053018;28;19920;-86
2023/11/07 04:04:01;;;;;;;;;;;10.40;99.90;;;;;;5046490;28;20083;-85
2023/11/07 04:06:27;;;;;;;;;;;10.40;99.90;;;;;;5054347;28;20022;-85
2023/11/07 04:08:53;;;;;;;;;;;10.30;99.90;;;;;;5054389;28;20003;-86
2023/11/07 04:11:19;;;;;;;;;;;10.30;99.90;;;;;;5044119;28;20417;-86
2023/11/07 04:13:45;;;;;;;;;;;10.30;99.90;;;;;;5048708;28;20019;-86
2023/11/07 04:16:10;;;;;;;;;;;10.30;99.90;;;;;;5053573;28;20447;-85
2023/11/07 04:18:36;;;;;;;;;;;10.30;99.90;;;;;;5051702;28;19909;-85
2023/11/07 04:21:04;;;;;;;;;;;10.30;99.90;;;;;;5053122;28;19913;-85
2023/11/07 04:23:29;;;;;;;;;;;10.40;99.90;;;;;;5052778;28;19932;-87
2023/11/07 04:25:55;;;;;;;;;;;10.40;99.90;;;;;;5054786;28;19911;-85
2023/11/07 04:28:21;;;;;;;;;;;10.40;99.90;;;;;;5077301;28;19972;-86
2023/11/07 04:30:46;;;;;;;;;;;10.40;99.90;;;;;;5051737;28;19919;-86
2023/11/07 04:33:12;;;;;;;;;;;10.30;99.90;;;;;;5048831;28;19921;-86
2023/11/07 04:35:39;;;;;;;;;;;10.20;99.90;;;;;;5053979;28;19970;-85
2023/11/07 04:38:05;;;;;;;;;;;10.20;99.90;;;;;;5053004;28;19970;-85
2023/11/07 04:40:30;;;;;;;;;;;10.20;99.90;;;;;;5050046;28;19913;-86
2023/11/07 04:42:56;;;;;;;;;;;10.10;99.90;;;;;;5052698;28;19908;-85
2023/11/07 04:45:22;;;;;;;;;;;10.10;99.90;;;;;;5054012;28;20405;-86
2023/11/07 04:47:48;;;;;;;;;;;10.10;99.90;;;;;;5050572;28;19913;-86
2023/11/07 04:50:14;;;;;;;;;;;10.10;99.90;;;;;;5042037;28;19909;-86
2023/11/07 04:52:40;;;;;;;;;;;10.00;99.90;;;;;;5050636;28;20000;-86
2023/11/07 04:55:06;;;;;;;;;;;10.10;99.90;;;;;;5050393;28;20368;-86
2023/11/07 04:57:32;;;;;;;;;;;10.00;99.90;;;;;;5053900;28;19915;-84
2023/11/07 04:59:58;;;;;;;;;;;10.00;99.90;;;;;;5054405;28;19920;-85
2023/11/07 05:02:23;;;;;;;;;;;10.00;99.90;;;;;;5054923;28;19913;-87
2023/11/07 05:04:51;;;;;;;;;;;10.00;99.90;;;;;;5059259;28;19909;-86
2023/11/07 05:07:17;;;;;;;;;;;9.90;99.90;;;;;;5074719;28;19913;-86
2023/11/07 05:09:43;;;;;;;;;;;9.90;99.90;;;;;;5056971;28;20263;-85
2023/11/07 05:12:08;;;;;;;;;;;9.90;99.90;;;;;;5054968;28;19927;-86
2023/11/07 05:14:34;;;;;;;;;;;9.80;99.90;;;;;;5053879;28;20340;-86
2023/11/07 05:17:00;;;;;;;;;;;9.80;99.90;;;;;;5054162;28;19962;-85
2023/11/07 05:19:25;;;;;;;;;;;9.80;99.90;;;;;;5053201;28;19909;-85
2023/11/07 05:21:51;;;;;;;;;;;9.80;99.90;;;;;;5054981;28;19913;-84
2023/11/07 05:24:17;;;;;;;;;;;9.70;99.90;;;;;;5055210;28;19944;-85
2023/11/07 05:26:45;;;;;;;;;;;9.80;99.90;;;;;;5054620;28;19912;-86
2023/11/07 05:29:15;;;;;;;;;;;9.80;99.90;;;;;;5054901;28;20394;-84
2023/11/07 05:31:40;;;;;;;;;;;9.80;99.90;;;;;;5055046;28;19913;-85
2023/11/07 05:34:06;;;;;;;;;;;9.90;99.90;;;;;;5052848;28;19928;-85
2023/11/07 05:36:32;;;;;;;;;;;9.90;99.90;;;;;;5054494;28;19912;-84
2023/11/07 05:38:58;;;;;;;;;;;10.00;99.90;;;;;;5055602;28;19991;-86
2023/11/07 05:41:25;;;;;;;;;;;10.00;99.90;;;;;;5055643;28;19909;-87
2023/11/07 05:43:51;;;;;;;;;;;10.00;99.90;;;;;;5063401;28;19931;-86
2023/11/07 05:46:17;;;;;;;;;;;10.00;99.90;;;;;;5070767;28;19947;-85
2023/11/07 05:48:43;;;;;;;;;;;10.00;99.90;;;;;;5059061;28;19913;-84
2023/11/07 05:51:09;;;;;;;;;;;10.00;99.90;;;;;;5052909;28;19963;-85
2023/11/07 05:53:35;;;;;;;;;;;10.00;99.90;;;;;;5051093;28;19916;-85
2023/11/07 05:56:01;;;;;;;;;;;10.10;99.90;;;;;;5052408;28;20027;-85
2023/11/07 05:58:27;;;;;;;;;;;10.10;99.90;;;;;;5049279;28;19913;-85
2023/11/07 06:00:55;;;;;;;;;;;10.10;99.90;;;;;;5043073;28;19966;-85
2023/11/07 06:03:21;;;;;;;;;;;10.10;99.90;;;;;;5051576;28;19920;-85
2023/11/07 06:05:46;;;;;;;;;;;10.00;99.90;;;;;;5053556;28;20007;-86
2023/11/07 06:08:12;;;;;;;;;;;10.00;99.90;;;;;;5053580;28;19978;-85
2023/11/07 06:10:38;;;;;;;;;;;10.00;99.90;;;;;;5049803;28;19921;-85
2023/11/07 06:13:04;;;;;;;;;;;10.10;99.90;;;;;;5046100;28;19916;-86
2023/11/07 06:15:31;;;;;;;;;;;10.20;99.90;;;;;;5062193;28;19937;-86
2023/11/07 06:17:56;;;;;;;;;;;10.30;99.90;;;;;;5047101;28;20325;-87
2023/11/07 06:20:23;;;;;;;;;;;10.40;99.90;;;;;;5050252;28;19917;-86
2023/11/07 06:22:48;;;;;;;;;;;10.30;99.90;;;;;;5053465;28;19951;-84
2023/11/07 06:25:15;;;;;;;;;;;10.40;99.90;;;;;;5053352;28;19909;-85
2023/11/07 06:27:41;;;;;;;;;;;10.40;99.90;;;;;;5050657;28;19936;-87
2023/11/07 06:30:09;;;;;;;;;;;10.40;99.90;;;;;;5053228;28;20363;-86
2023/11/07 06:32:35;;;;;;;;;;;10.40;99.90;;;;;;5054141;28;19923;-87
2023/11/07 06:35:01;;;;;;;;;;;10.40;99.90;;;;;;5054528;28;19936;-86
2023/11/07 06:37:33;;;;;;;;;;;10.50;99.90;;;;;;5054267;28;20341;-86
2023/11/07 06:40:13;;;;;;;;;;;10.60;99.90;;;;;;5071904;28;19915;-87
2023/11/07 06:42:40;;;;;;;;;;;10.70;99.90;;;;;;5055349;28;19916;-86
2023/11/07 06:45:05;;;;;;;;;;;10.70;99.90;;;;;;5056926;28;19919;-86
2023/11/07 06:47:31;;;;;;;;;;;10.70;99.90;;;;;;5052444;28;19958;-85
2023/11/07 06:49:57;;;;;;;;;;;10.80;99.90;;;;;;5057490;28;19909;-83
2023/11/07 06:52:23;;;;;;;;;;;10.80;99.90;;;;;;5053207;28;20297;-85
2023/11/07 06:54:49;;;;;;;;;;;10.90;99.90;;;;;;5055072;28;19921;-85
2023/11/07 06:57:14;;;;;;;;;;;10.90;99.90;;;;;;5056263;28;19921;-84
2023/11/07 06:59:41;;;;;;;;;;;10.90;99.90;;;;;;5056750;28;19987;-86
2023/11/07 07:02:07;;;;;;;;;;;11.00;99.90;;;;;;5051346;28;19955;-85
2023/11/07 07:04:33;;;;;;;;;;;11.10;99.90;;;;;;5056110;28;20011;-85
2023/11/07 07:06:59;;;;;;;;;;;11.10;99.90;;;;;;5057001;28;19909;-87
2023/11/07 07:09:26;;;;;;;;;;;11.20;99.90;;;;;;5055161;28;19994;-85
2023/11/07 07:11:55;;;;;;;;;;;11.20;99.90;;;;;;5052930;28;19932;-87
2023/11/07 07:14:21;;;;;;;;;;;11.10;99.90;;;;;;5048862;28;20039;-86
2023/11/07 07:16:46;;;;;;;;;;;11.20;99.90;;;;;;5048047;28;19912;-82
2023/11/07 07:19:17;;;;;;;;;;;11.30;99.90;;;;;;5049777;28;19920;-82
2023/11/07 07:21:43;;;;;;;;;;;11.40;99.90;;;;;;5035588;28;20324;-81
2023/11/07 07:24:21;;;;;;;;;;;11.70;99.90;;;;;;5042017;28;19915;-81
2023/11/07 07:26:47;;;;;;;;;;;11.80;99.90;;;;;;5039835;28;19991;-83
2023/11/07 07:29:13;;;;;;;;;;;11.90;99.90;;;;;;5043674;28;19915;-83
2023/11/07 07:31:39;;;;;;;;;;;12.10;99.90;;;;;;5053214;28;19909;-83
2023/11/07 07:34:05;;;;;;;;;;;12.30;99.90;;;;;;5054812;28;20416;-83
2023/11/07 07:36:31;;;;;;;;;;;12.50;99.90;;;;;;5045121;28;19917;-84
2023/11/07 07:38:57;;;;;;;;;;;12.60;99.90;;;;;;5054019;28;19913;-84
2023/11/07 07:41:23;;;;;;;;;;;12.80;99.90;;;;;;5054842;28;19948;-85
2023/11/07 07:43:48;;;;;;;;;;;12.90;99.90;;;;;;5051169;28;19916;-84
2023/11/07 07:46:15;;;;;;;;;;;12.90;99.90;;;;;;5056020;28;19913;-87
2023/11/07 07:48:42;;;;;;;;;;;12.80;99.90;;;;;;5056441;28;20003;-87
2023/11/07 07:51:11;;;;;;;;;;;12.70;99.90;;;;;;5053613;28;19920;-85
2023/11/07 07:53:37;;;;;;;;;;;12.70;99.90;;;;;;5056092;28;19916;-84
2023/11/07 07:56:12;;;;;;;;;;;12.70;99.90;;;;;;5055352;28;19909;-84
2023/11/07 07:58:40;;;;;;;;;;;12.70;99.90;;;;;;5054707;28;19909;-86
2023/11/07 08:01:09;;;;;;;;;;;12.60;99.90;;;;;;5059931;28;19920;-84
2023/11/07 08:03:35;;;;;;;;;;;12.30;99.90;;;;;;5074320;28;19893;-83
2023/11/07 08:06:01;;;;;;;;;;;12.00;99.90;;;;;;5054349;28;20263;-87
2023/11/07 08:08:27;;;;;;;;;;;11.80;99.90;;;;;;5048579;28;19916;-85
2023/11/07 08:10:57;;;;;;;;;;;11.70;99.90;;;;;;5053253;28;19920;-85
2023/11/07 08:13:25;;;;;;;;;;;11.60;99.90;;;;;;5054604;28;20039;-84
2023/11/07 08:15:50;;;;;;;;;;;11.40;99.90;;;;;;5066380;28;19916;-85
2023/11/07 08:18:17;;;;;;;;;;;11.20;99.90;;;;;;5055534;28;19912;-88
2023/11/07 08:20:44;;;;;;;;;;;11.00;99.90;;;;;;5055316;28;19909;-88
2023/11/07 08:23:10;;;;;;;;;;;10.80;99.90;;;;;;5053314;28;20395;-85
2023/11/07 08:25:36;;;;;;;;;;;10.60;99.90;;;;;;5052835;28;19963;-85
2023/11/07 08:28:06;;;;;;;;;;;10.50;99.90;;;;;;5052095;28;19917;-85
2023/11/07 08:30:33;;;;;;;;;;;10.50;99.90;;;;;;5045863;28;19921;-87
2023/11/07 08:32:59;;;;;;;;;;;10.40;99.90;;;;;;5054869;28;20003;-83
2023/11/07 08:35:25;;;;;;;;;;;10.30;99.90;;;;;;5061477;28;20348;-84
2023/11/07 08:37:51;;;;;;;;;;;10.10;99.90;;;;;;5053697;28;19952;-83
2023/11/07 08:40:17;;;;;;;;;;;10.20;99.90;;;;;;5046760;28;19913;-82
2023/11/07 08:42:43;;;;;;;;;;;10.30;99.90;;;;;;5056002;28;19916;-86
2023/11/07 08:45:15;;;;;;;;;;;10.30;99.90;;;;;;5054628;28;19913;-85
2023/11/07 08:47:42;;;;;;;;;;;10.50;99.90;;;;;;5055100;28;19913;-86
2023/11/07 08:50:10;;;;;;;;;;;10.80;99.90;;;;;;5051011;28;19963;-85
2023/11/07 08:52:36;;;;;;;;;;;10.80;99.90;;;;;;5050199;28;20358;-84
2023/11/07 08:55:05;;;;;;;;;;;10.80;99.90;;;;;;5054214;28;19913;-85
2023/11/07 08:57:31;;;;;;;;;;;10.70;99.90;;;;;;5054219;28;19928;-84
2023/11/07 08:59:57;;;;;;;;;;;10.60;99.90;;;;;;5045710;28;19951;-84
2023/11/07 09:02:23;;;;;;;;;;;10.60;99.90;;;;;;5055883;28;19908;-87
2023/11/07 09:04:48;;;;;;;;;;;10.60;99.90;;;;;;5055906;28;19916;-84
2023/11/07 09:07:16;;;;;;;;;;;10.70;99.90;;;;;;5054196;28;19908;-82
2023/11/07 09:09:42;;;;;;;;;;;11.00;99.90;;;;;;5045390;28;20286;-85
2023/11/07 09:12:10;;;;;;;;;;;11.20;99.90;;;;;;5049595;28;20243;-86
2023/11/07 09:14:35;;;;;;;;;;;11.30;99.90;;;;;;5053090;28;19994;-86
2023/11/07 09:17:01;;;;;;;;;;;11.30;99.90;;;;;;5053572;28;20238;-85
2023/11/07 09:19:27;;;;;;;;;;;11.30;99.90;;;;;;5053638;28;19909;-86
2023/11/07 09:21:53;;;;;;;;;;;11.30;99.90;;;;;;5051756;28;20246;-86
2023/11/07 09:24:18;;;;;;;;;;;11.20;99.90;;;;;;5051254;28;19951;-84
2023/11/07 09:26:45;;;;;;;;;;;11.30;99.90;;;;;;5047940;28;19927;-83
2023/11/07 09:29:11;;;;;;;;;;;11.30;99.90;;;;;;5053072;28;19919;-84
2023/11/07 09:31:36;;;;;;;;;;;11.50;99.90;;;;;;5044518;28;20259;-82
2023/11/07 09:34:02;;;;;;;;;;;11.60;99.90;;;;;;5043099;28;20412;-84
2023/11/07 09:36:28;;;;;;;;;;;11.50;99.90;;;;;;5052848;28;20420;-85
2023/11/07 09:38:56;;;;;;;;;;;11.50;99.90;;;;;;5047117;28;20351;-84
2023/11/07 09:41:21;;;;;;;;;;;11.40;99.90;;;;;;5051509;28;20014;-84
2023/11/07 09:43:48;;;;;;;;;;;11.30;99.90;;;;;;5045253;28;19913;-85
2023/11/07 09:46:15;;;;;;;;;;;11.20;99.90;;;;;;5045577;28;19959;-84
2023/11/07 09:48:41;;;;;;;;;;;11.10;99.90;;;;;;5070720;28;19893;-84
2023/11/07 09:51:08;;;;;;;;;;;11.10;99.90;;;;;;5070728;28;19909;-85
2023/11/07 09:53:35;;;;;;;;;;;11.00;99.90;;;;;;5063413;28;20332;-86
2023/11/07 09:56:03;;;;;;;;;;;11.00;99.90;;;;;;5052156;28;19920;-87
2023/11/07 09:58:29;;;;;;;;;;;11.10;99.90;;;;;;5053091;28;20016;-89
2023/11/07 10:00:58;;;;;;;;;;;11.00;99.90;;;;;;5050612;28;19908;-82
2023/11/07 10:03:24;;;;;;;;;;;10.90;99.90;;;;;;5052104;28;19916;-91
2023/11/07 10:05:51;;;;;;;;;;;10.60;99.90;;;;;;5057601;28;19969;-86
2023/11/07 10:08:19;;;;;;;;;;;10.60;99.90;;;;;;5051699;28;19966;-88
2023/11/07 10:11:05;;;;;;;;;;;10.60;99.90;;;;;;5040216;28;19966;-86
2023/11/07 10:13:33;;;;;;;;;;;10.80;99.90;;;;;;5055076;28;20124;-88
2023/11/07 10:16:13;;;;;;;;;;;11.00;99.90;;;;;;5054677;28;20353;-86
2023/11/07 10:18:51;;;;;;;;;;;11.10;99.90;;;;;;5055218;28;19913;-87
2023/11/07 10:21:32;;;;;;;;;;;11.40;99.90;;;;;;5055827;28;19908;-84
2023/11/07 10:23:58;;;;;;;;;;;11.50;99.90;;;;;;5050102;28;19909;-85
2023/11/07 10:26:24;;;;;;;;;;;11.60;99.90;;;;;;5056583;28;19920;-86
2023/11/07 10:29:14;;;;;;;;;;;11.60;99.90;;;;;;5056525;28;19908;-85
2023/11/07 10:31:43;;;;;;;;;;;11.50;99.90;;;;;;5056509;28;19991;-85
2023/11/07 10:34:16;;;;;;;;;;;11.30;99.90;;;;;;5055473;28;19924;-84
2023/11/07 10:36:43;;;;;;;;;;;11.20;99.90;;;;;;5056425;28;20056;-84
2023/11/07 10:39:21;;;;;;;;;;;11.00;99.90;;;;;;5056231;28;20269;-83
2023/11/07 10:41:49;;;;;;;;;;;10.90;99.90;;;;;;5055262;28;19913;-84
2023/11/07 10:44:22;;;;;;;;;;;10.80;99.90;;;;;;5053402;28;19913;-84
2023/11/07 10:46:48;;;;;;;;;;;10.80;99.90;;;;;;5055669;28;19909;-83
2023/11/07 10:49:15;;;;;;;;;;;10.80;99.90;;;;;;5050653;28;19982;-84
2023/11/07 10:51:42;;;;;;;;;;;10.80;99.90;;;;;;5056219;28;20008;-84
2023/11/07 10:54:07;;;;;;;;;;;10.90;99.90;;;;;;5056104;28;19921;-86
2023/11/07 10:56:36;;;;;;;;;;;11.00;99.90;;;;;;5048087;28;19913;-84
2023/11/07 10:59:02;;;;;;;;;;;11.20;99.90;;;;;;5056453;28;20444;-89
2023/11/07 11:01:30;;;;;;;;;;;11.30;99.90;;;;;;5054840;28;19913;-86
2023/11/07 11:03:59;;;;;;;;;;;11.40;99.90;;;;;;5056465;28;19909;-86
2023/11/07 11:06:26;;;;;;;;;;;11.40;99.90;;;;;;5056933;28;20273;-84
2023/11/07 11:08:56;;;;;;;;;;;11.50;99.90;;;;;;5055209;28;19917;-87
2023/11/07 11:11:23;;;;;;;;;;;11.60;99.90;;;;;;5054457;28;19989;-87
2023/11/07 11:13:51;;;;;;;;;;;11.70;99.90;;;;;;5054017;28;19921;-86
2023/11/07 11:16:18;;;;;;;;;;;11.70;99.90;;;;;;5059596;28;19970;-85
2023/11/07 11:18:56;;;;;;;;;;;11.80;99.90;;;;;;5060829;28;19909;-87
2023/11/07 11:21:29;;;;;;;;;;;11.70;99.90;;;;;;5064073;28;19927;-88
2023/11/07 11:24:03;;;;;;;;;;;11.70;99.90;;;;;;5070492;28;20003;-87
2023/11/07 11:26:36;;;;;;;;;;;11.60;99.90;;;;;;5054518;28;19959;-87
2023/11/07 11:29:23;;;;;;;;;;;11.60;99.90;;;;;;5054299;28;20378;-88
2023/11/07 11:31:49;;;;;;;;;;;11.60;99.90;;;;;;5068445;28;20322;-89
2023/11/07 11:34:25;;;;;;;;;;;11.60;99.90;;;;;;5055140;28;19967;-88
2023/11/07 11:36:56;;;;;;;;;;;11.60;99.90;;;;;;5053662;28;19913;-88
2023/11/07 11:39:31;;;;;;;;;;;11.60;99.90;;;;;;5064115;28;19921;-89
2023/11/07 11:41:57;;;;;;;;;;;11.70;99.90;;;;;;5061748;28;19924;-87
2023/11/07 11:44:26;;;;;;;;;;;11.80;99.90;;;;;;5055380;28;20333;-85
2023/11/07 11:46:52;;;;;;;;;;;11.80;99.90;;;;;;5054988;28;19919;-86
2023/11/07 11:49:19;;;;;;;;;;;11.70;99.90;;;;;;5053908;28;19909;-84
2023/11/07 11:51:51;;;;;;;;;;;11.60;99.90;;;;;;5054559;28;19909;-85
2023/11/07 11:54:24;;;;;;;;;;;11.50;99.90;;;;;;5053566;28;19924;-87
2023/11/07 11:56:50;;;;;;;;;;;11.30;99.90;;;;;;5055763;28;19920;-88
2023/11/07 11:59:25;;;;;;;;;;;11.40;99.90;;;;;;5055398;28;20667;-88
2023/11/07 12:01:52;;;;;;;;;;;11.40;99.90;;;;;;5052244;28;19920;-86
2023/11/07 12:04:36;;;;;;;;;;;11.40;99.90;;;;;;5049815;28;19913;-87
2023/11/07 12:07:20;;;;;;;;;;;11.40;99.90;;;;;;5045784;28;19913;-84
2023/11/07 12:09:49;;;;;;;;;;;11.40;99.90;;;;;;5066148;28;20632;-84
2023/11/07 12:12:15;;;;;;;;;;;11.40;99.90;;;;;;5057440;28;20063;-87
2023/11/07 12:14:53;;;;;;;;;;;11.40;99.90;;;;;;5058986;28;19921;-87
2023/11/07 12:17:19;;;;;;;;;;;11.30;99.90;;;;;;5056233;28;20265;-87
2023/11/07 12:19:44;;;;;;;;;;;11.30;99.90;;;;;;5057497;28;19976;-85
2023/11/07 12:22:13;;;;;;;;;;;11.30;99.90;;;;;;5055137;28;20009;-84
2023/11/07 12:24:45;;;;;;;;;;;11.30;99.90;;;;;;5053474;28;20369;-85
2023/11/07 12:27:18;;;;;;;;;;;11.20;99.90;;;;;;5054448;28;19909;-84
2023/11/07 12:29:44;;;;;;;;;;;11.20;99.90;;;;;;5041727;28;19932;-83
2023/11/07 12:32:18;;;;;;;;;;;11.30;99.90;;;;;;5054603;28;19909;-83
2023/11/07 12:34:46;;;;;;;;;;;11.10;99.90;;;;;;5053907;28;19924;-83
2023/11/07 12:37:14;;;;;;;;;;;11.10;99.90;;;;;;5053062;28;19919;-85
2023/11/07 12:39:40;;;;;;;;;;;11.10;99.90;;;;;;5051733;28;20396;-84
2023/11/07 12:42:07;;;;;;;;;;;11.10;99.90;;;;;;5042774;28;20396;-84
2023/11/07 12:44:34;;;;;;;;;;;11.10;99.90;;;;;;5052452;28;20008;-86
2023/11/07 12:47:00;;;;;;;;;;;11.10;99.90;;;;;;5052307;28;20306;-85
2023/11/07 12:49:27;;;;;;;;;;;11.10;99.90;;;;;;5053456;28;19913;-84
2023/11/07 12:51:55;;;;;;;;;;;11.00;99.90;;;;;;5054273;28;19916;-86
2023/11/07 12:54:26;;;;;;;;;;;11.00;99.90;;;;;;5054758;28;19917;-87
2023/11/07 12:56:51;;;;;;;;;;;11.00;99.90;;;;;;5067240;28;19948;-85
2023/11/07 12:59:17;;;;;;;;;;;10.90;99.90;;;;;;5056870;28;19966;-82
2023/11/07 13:01:47;;;;;;;;;;;10.90;99.90;;;;;;5047692;28;19920;-90
2023/11/07 13:04:14;;;;;;;;;;;10.90;99.90;;;;;;5048311;28;19913;-87
2023/11/07 13:06:50;;;;;;;;;;;10.90;99.90;;;;;;5043966;28;19913;-83
2023/11/07 13:09:20;;;;;;;;;;;10.90;99.90;;;;;;5057653;28;19917;-82
2023/11/07 13:11:46;;;;;;;;;;;10.90;99.90;;;;;;5059269;28;20359;-86
2023/11/07 13:14:12;;;;;;;;;;;10.90;99.90;;;;;;5056055;28;20365;-87
2023/11/07 13:16:41;;;;;;;;;;;10.90;99.90;;;;;;5053373;28;20207;-86
2023/11/07 13:19:06;;;;;;;;;;;10.90;99.90;;;;;;5053826;28;19958;-85
2023/11/07 13:21:32;;;;;;;;;;;10.90;99.90;;;;;;5047613;28;20358;-86
2023/11/07 13:23:58;;;;;;;;;;;11.00;99.90;;;;;;5052458;28;19909;-85
2023/11/07 13:26:23;;;;;;;;;;;10.90;99.90;;;;;;5058373;28;20302;-82
2023/11/07 13:28:49;;;;;;;;;;;10.90;99.90;;;;;;5064073;28;19915;-81
2023/11/07 13:31:15;;;;;;;;;;;10.90;99.90;;;;;;5054752;28;19936;-82
2023/11/07 13:33:42;;;;;;;;;;;10.90;99.90;;;;;;5050455;28;19951;-80
2023/11/07 13:36:08;;;;;;;;;;;10.90;99.90;;;;;;5051967;28;20005;-83
2023/11/07 13:38:34;;;;;;;;;;;10.90;99.90;;;;;;5051937;28;20297;-82
2023/11/07 13:40:59;;;;;;;;;;;10.90;99.90;;;;;;5052142;28;20357;-84
2023/11/07 13:43:25;;;;;;;;;;;10.90;99.90;;;;;;5052171;28;19913;-83
2023/11/07 13:45:53;;;;;;;;;;;10.90;99.90;;;;;;5052784;28;19912;-84
2023/11/07 13:48:19;;;;;;;;;;;10.90;99.90;;;;;;5051953;28;19916;-83
2023/11/07 13:50:45;;;;;;;;;;;10.80;99.90;;;;;;5052597;28;19912;-87
2023/11/07 13:53:12;;;;;;;;;;;10.80;99.90;;;;;;5045457;28;20452;-84
2023/11/07 13:55:37;;;;;;;;;;;10.80;99.90;;;;;;5036689;28;19909;-84
2023/11/07 13:58:03;;;;;;;;;;;10.70;99.90;;;;;;5043939;28;19977;-85
2023/11/07 14:00:29;;;;;;;;;;;10.70;99.90;;;;;;5039460;28;19913;-83
2023/11/07 14:02:55;;;;;;;;;;;10.70;99.90;;;;;;5036204;28;19913;-83
2023/11/07 14:05:21;;;;;;;;;;;10.70;99.90;;;;;;5047860;28;20044;-83
2023/11/07 14:07:50;;;;;;;;;;;10.60;99.90;;;;;;5038220;28;20054;-84
2023/11/07 14:10:18;;;;;;;;;;;10.60;99.90;;;;;;5050247;28;20012;-82
2023/11/07 14:12:44;;;;;;;;;;;10.60;99.90;;;;;;5048049;28;19912;-83
2023/11/07 14:15:11;;;;;;;;;;;10.60;99.90;;;;;;5051718;28;20353;-87
2023/11/07 14:17:40;;;;;;;;;;;10.60;99.90;;;;;;5040790;28;20423;-89